DK-0018 weather

Filskov Flyveplads
Filskov, Denmark

Public forecast

Using degrees Celsius for public forecast. Weather courtesy of forecast.io.

METAR (pilot weather report)

Closest report is Billund Airport, 5.7 nm (10.6 km) SE. Retrieved 2019/05/20 18:20 UTC (11 minutes ago):

EKBI 201820Z AUTO 35006KT 9999 NCD 19/12 Q1007

TAF (pilot weather forecast)

Closest forecast is Billund Airport, 5.7 nm (10.6 km) SE. Retrieved 2019/05/20 18:18 UTC (13 minutes ago):

TAF EKBI 201710Z 2018/2118 01008KT 9999 SCT020 BECMG 2021/2023 4000 BR BKN008 TEMPO 2023/2107 2000 BR BKN002 BECMG 2107/2109 8000 NSW BKN015 TEMPO 2109/2118 4000 SHRA BKN008 SCT020CB PROB40 TEMPO 2112/2118 TSRA